createdAt,value
2022-08-11T00:02:28.413Z,6.70
2022-08-11T00:05:30.430Z,6.80
2022-08-11T00:08:33.446Z,5.70
2022-08-11T00:11:40.061Z,7.00
2022-08-11T00:14:42.972Z,6.30
2022-08-11T00:17:46.117Z,6.10
2022-08-11T00:20:48.237Z,5.80
2022-08-11T00:23:56.308Z,5.60
2022-08-11T00:26:58.159Z,6.10
2022-08-11T00:29:59.990Z,6.40
2022-08-11T00:33:01.979Z,6.00
2022-08-11T00:36:04.676Z,6.60
2022-08-11T00:39:08.326Z,7.30
2022-08-11T00:42:15.835Z,7.10
2022-08-11T00:45:29.440Z,7.10
2022-08-11T00:49:12.152Z,6.70
2022-08-11T00:52:29.726Z,7.00
2022-08-11T00:56:05.364Z,7.00
2022-08-11T00:59:34.379Z,6.60
2022-08-11T01:03:06.663Z,6.80
2022-08-11T01:06:26.449Z,6.90
2022-08-11T01:09:35.273Z,6.80
2022-08-11T01:12:45.166Z,7.00
2022-08-11T01:16:25.404Z,6.80
2022-08-11T01:20:38.623Z,6.60
2022-08-11T01:23:32.370Z,7.30
2022-08-11T01:26:55.603Z,6.60
2022-08-11T01:30:08.000Z,8.00
2022-08-11T01:33:27.356Z,7.80
2022-08-11T01:36:38.245Z,8.00
2022-08-11T01:40:24.403Z,7.70
2022-08-11T01:44:16.152Z,7.40
2022-08-11T01:47:53.428Z,7.00
2022-08-11T01:51:30.262Z,6.90
2022-08-11T01:54:59.617Z,6.80
2022-08-11T01:58:19.925Z,7.40
2022-08-11T02:01:51.844Z,7.30
2022-08-11T02:05:01.608Z,7.50
2022-08-11T02:08:33.221Z,6.90
2022-08-11T02:11:37.589Z,6.80
2022-08-11T02:15:16.224Z,7.70
2022-08-11T02:18:48.606Z,6.80
2022-08-11T02:22:16.245Z,7.20
2022-08-11T02:25:28.994Z,6.60
2022-08-11T02:28:55.253Z,6.80
2022-08-11T02:32:48.425Z,6.70
2022-08-11T02:36:24.737Z,7.10
2022-08-11T02:39:36.588Z,6.80
2022-08-11T02:42:45.826Z,6.90
2022-08-11T02:46:01.499Z,6.40
2022-08-11T02:49:21.667Z,6.80
2022-08-11T02:52:35.718Z,7.20
2022-08-11T02:56:01.197Z,7.30
2022-08-11T02:59:38.730Z,7.40
2022-08-11T03:02:53.725Z,8.20
2022-08-11T03:06:17.302Z,7.80
2022-08-11T03:09:25.666Z,7.90
2022-08-11T03:12:54.247Z,8.40
2022-08-11T03:16:38.200Z,7.50
2022-08-11T03:20:01.215Z,7.40
2022-08-11T03:23:03.068Z,8.00
2022-08-11T03:26:33.677Z,9.20
2022-08-11T03:29:42.524Z,7.50
2022-08-11T03:33:27.349Z,8.20
2022-08-11T03:37:17.004Z,7.90
2022-08-11T03:40:38.311Z,7.90
2022-08-11T03:44:29.955Z,7.40
2022-08-11T03:47:41.664Z,7.30
2022-08-11T03:51:14.370Z,7.80
2022-08-11T03:54:19.976Z,7.90
2022-08-11T03:57:54.096Z,8.70
2022-08-11T04:01:14.721Z,8.40
2022-08-11T04:04:29.491Z,8.30
2022-08-11T04:08:00.567Z,7.80
2022-08-11T04:11:21.177Z,7.40
2022-08-11T04:15:15.606Z,7.70
2022-08-11T04:18:23.619Z,7.10
2022-08-11T04:22:07.671Z,9.10
2022-08-11T04:25:12.498Z,7.60
2022-08-11T04:28:32.729Z,6.90
2022-08-11T04:32:08.164Z,8.30
2022-08-11T04:35:18.587Z,7.80
2022-08-11T04:38:39.070Z,8.00
2022-08-11T04:42:12.578Z,7.20
2022-08-11T04:45:41.208Z,7.20
2022-08-11T04:49:04.932Z,7.00
2022-08-11T04:52:53.253Z,6.40
2022-08-11T04:56:22.614Z,6.50
2022-08-11T05:00:08.602Z,6.60
2022-08-11T05:03:16.171Z,6.40
2022-08-11T05:06:30.101Z,5.90
2022-08-11T05:09:48.656Z,6.60
2022-08-11T05:13:25.190Z,6.40
2022-08-11T05:16:53.388Z,6.30
2022-08-11T05:20:13.974Z,5.90
2022-08-11T05:23:35.909Z,5.50
2022-08-11T05:27:11.259Z,6.10
2022-08-11T05:30:34.441Z,6.10
2022-08-11T05:34:08.844Z,5.60
2022-08-11T05:37:26.719Z,5.80
2022-08-11T05:40:51.285Z,6.10
2022-08-11T05:44:20.126Z,6.00
2022-08-11T05:47:46.187Z,5.80
2022-08-11T05:51:16.484Z,5.60
2022-08-11T05:54:38.123Z,5.50
2022-08-11T05:57:51.083Z,5.00
2022-08-11T06:00:54.176Z,5.30
2022-08-11T06:04:16.415Z,5.30
2022-08-11T06:07:19.107Z,5.70
2022-08-11T06:10:35.990Z,5.30
2022-08-11T06:13:44.789Z,5.40
2022-08-11T06:16:51.048Z,4.90
2022-08-11T06:20:04.202Z,5.00
2022-08-11T06:23:10.224Z,4.60
2022-08-11T06:26:13.877Z,4.90
2022-08-11T06:29:18.613Z,4.70
2022-08-11T06:32:24.772Z,4.50
2022-08-11T06:35:32.489Z,4.50
2022-08-11T06:38:48.138Z,4.00
2022-08-11T06:41:54.518Z,4.10
2022-08-11T06:45:05.229Z,4.30
2022-08-11T06:48:10.436Z,4.00
2022-08-11T06:51:12.279Z,3.90
2022-08-11T06:54:15.315Z,4.40
2022-08-11T06:57:38.007Z,4.20
2022-08-11T07:00:40.787Z,3.80
2022-08-11T07:03:48.997Z,4.00
2022-08-11T07:07:21.307Z,4.00
2022-08-11T07:10:59.465Z,4.60
2022-08-11T07:14:22.159Z,3.80
2022-08-11T07:17:25.540Z,3.80
2022-08-11T07:20:47.217Z,4.10
2022-08-11T07:24:07.905Z,3.60
2022-08-11T07:27:41.025Z,3.90
2022-08-11T07:30:43.557Z,3.80
2022-08-11T07:34:05.046Z,3.60
2022-08-11T07:37:17.833Z,4.60
2022-08-11T07:40:24.185Z,3.30
2022-08-11T07:43:25.885Z,3.40
2022-08-11T07:46:46.267Z,3.70
2022-08-11T07:50:08.003Z,3.20
2022-08-11T07:53:10.432Z,3.30
2022-08-11T07:56:17.315Z,3.40
2022-08-11T08:00:03.395Z,3.50
2022-08-11T08:03:25.018Z,3.80
2022-08-11T08:06:46.462Z,3.50
2022-08-11T08:10:08.065Z,3.30
2022-08-11T08:13:28.754Z,3.00
2022-08-11T08:16:49.232Z,3.10
2022-08-11T08:19:51.207Z,3.20
2022-08-11T08:22:58.362Z,3.30
2022-08-11T08:26:03.318Z,3.20
2022-08-11T08:29:25.606Z,3.20
2022-08-11T08:32:28.231Z,3.40
2022-08-11T08:35:32.910Z,3.20
2022-08-11T08:38:35.081Z,3.00
2022-08-11T08:41:38.919Z,3.00
2022-08-11T08:44:46.501Z,3.50
2022-08-11T08:48:01.789Z,2.90
2022-08-11T08:52:02.439Z,3.10
2022-08-11T08:54:56.413Z,3.00
2022-08-11T08:58:00.795Z,3.10
2022-08-11T09:01:03.247Z,3.00
2022-08-11T09:04:11.762Z,2.70
2022-08-11T09:07:20.024Z,2.90
2022-08-11T09:10:22.857Z,3.00
2022-08-11T09:13:24.663Z,2.90
2022-08-11T09:16:26.470Z,3.00
2022-08-11T09:19:28.165Z,3.30
2022-08-11T09:23:24.248Z,2.60
2022-08-11T09:26:36.106Z,3.00
2022-08-11T09:29:38.434Z,2.90
2022-08-11T09:32:42.169Z,2.90
2022-08-11T09:35:45.417Z,2.90
2022-08-11T09:39:05.896Z,3.00
2022-08-11T09:42:11.390Z,3.50
2022-08-11T09:45:19.366Z,2.70
2022-08-11T09:48:24.701Z,2.60
2022-08-11T09:51:31.066Z,2.60
2022-08-11T09:54:33.316Z,2.60
2022-08-11T09:57:55.133Z,2.50
2022-08-11T10:00:59.371Z,2.40
2022-08-11T10:04:10.846Z,2.60
2022-08-11T10:07:17.311Z,2.50
2022-08-11T10:10:22.948Z,2.50
2022-08-11T10:14:04.921Z,2.70
2022-08-11T10:16:57.459Z,2.90
2022-08-11T10:20:05.381Z,2.50
2022-08-11T10:23:27.691Z,2.80
2022-08-11T10:26:49.759Z,2.80
2022-08-11T10:30:10.573Z,2.80
2022-08-11T10:33:37.855Z,3.20
2022-08-11T10:36:48.594Z,2.80
2022-08-11T10:39:52.294Z,3.50
2022-08-11T10:43:02.997Z,2.60
2022-08-11T10:46:30.450Z,2.80
2022-08-11T10:49:32.989Z,2.80
2022-08-11T10:52:56.002Z,2.60
2022-08-11T10:56:17.370Z,3.60
2022-08-11T10:59:19.314Z,2.40
2022-08-11T11:02:21.569Z,2.30
2022-08-11T11:05:29.022Z,2.40
2022-08-11T11:08:50.128Z,2.70
2022-08-11T11:12:16.552Z,2.90
2022-08-11T11:15:39.738Z,3.10
2022-08-11T11:18:43.191Z,2.80
2022-08-11T11:21:47.677Z,3.00
2022-08-11T11:25:21.418Z,2.60
2022-08-11T11:28:52.081Z,2.60
2022-08-11T11:31:56.449Z,2.80
2022-08-11T11:35:19.074Z,2.70
2022-08-11T11:38:21.371Z,2.40
2022-08-11T11:41:27.279Z,2.40
2022-08-11T11:44:29.769Z,2.60
2022-08-11T11:47:32.158Z,2.80
2022-08-11T11:50:36.547Z,2.30
2022-08-11T11:53:38.369Z,2.30
2022-08-11T11:56:41.541Z,2.50
2022-08-11T12:00:07.575Z,3.00
2022-08-11T12:03:11.346Z,3.20
2022-08-11T12:06:16.292Z,3.40
2022-08-11T12:09:23.372Z,2.40
2022-08-11T12:12:45.126Z,3.00
2022-08-11T12:16:33.722Z,3.00
2022-08-11T12:19:18.215Z,4.60
2022-08-11T12:26:23.732Z,3.60
2022-08-11T12:29:27.429Z,3.10
2022-08-11T12:32:31.430Z,3.50
2022-08-11T12:35:35.352Z,3.20
2022-08-11T12:38:37.348Z,3.40
2022-08-11T12:41:59.182Z,3.20
2022-08-11T12:45:28.530Z,3.50
2022-08-11T12:49:00.459Z,3.60
2022-08-11T12:52:14.856Z,3.50
2022-08-11T12:55:39.768Z,3.30
2022-08-11T12:58:43.115Z,3.40
2022-08-11T13:02:03.810Z,4.00
2022-08-11T13:05:08.401Z,3.20
2022-08-11T13:08:10.661Z,3.60
2022-08-11T13:11:56.674Z,3.20
2022-08-11T13:14:56.023Z,3.30
2022-08-11T13:17:59.493Z,3.20
2022-08-11T13:21:01.659Z,3.00
2022-08-11T13:24:03.855Z,3.20
2022-08-11T13:27:06.827Z,3.20
2022-08-11T13:30:27.810Z,2.80
2022-08-11T13:33:29.772Z,2.70
2022-08-11T13:36:32.075Z,2.90
2022-08-11T13:39:35.451Z,2.70
2022-08-11T13:42:39.656Z,2.50
2022-08-11T13:45:43.860Z,2.60
2022-08-11T13:48:46.048Z,2.60
2022-08-11T13:51:48.069Z,2.50
2022-08-11T13:54:51.235Z,2.20
2022-08-11T13:58:08.177Z,2.70
2022-08-11T14:02:03.519Z,2.50
2022-08-11T14:04:44.070Z,2.30
2022-08-11T14:07:50.976Z,2.30
2022-08-11T14:11:19.903Z,2.40
2022-08-11T14:14:36.173Z,2.40
2022-08-11T14:17:48.802Z,2.20
2022-08-11T14:21:13.383Z,2.10
2022-08-11T14:24:16.629Z,2.70
2022-08-11T14:28:22.127Z,2.40
2022-08-11T14:31:00.498Z,2.50
2022-08-11T14:34:08.837Z,2.10
2022-08-11T14:37:13.140Z,2.00
2022-08-11T14:40:35.010Z,1.90
2022-08-11T14:44:12.510Z,2.20
2022-08-11T14:50:29.246Z,1.90
2022-08-11T14:53:31.837Z,2.00
2022-08-11T14:56:37.225Z,2.10
2022-08-11T14:59:39.341Z,1.80
2022-08-11T15:03:01.701Z,1.90
2022-08-11T15:06:05.268Z,2.10
2022-08-11T15:09:09.287Z,2.00
2022-08-11T15:12:32.429Z,2.10
2022-08-11T15:15:54.098Z,2.10
2022-08-11T15:18:55.889Z,2.30
2022-08-11T15:22:17.151Z,2.10
2022-08-11T15:25:21.015Z,2.30
2022-08-11T15:28:42.606Z,2.20
2022-08-11T15:32:03.671Z,2.30
2022-08-11T15:35:24.451Z,2.60
2022-08-11T15:38:27.951Z,2.70
2022-08-11T15:42:00.706Z,2.50
2022-08-11T15:45:23.661Z,2.50
2022-08-11T15:48:42.867Z,2.60
2022-08-11T15:52:07.971Z,3.30
2022-08-11T15:55:10.416Z,2.90
2022-08-11T15:58:32.358Z,3.00
2022-08-11T16:01:53.801Z,3.10
2022-08-11T16:04:57.062Z,3.10
2022-08-11T16:08:00.046Z,3.20
2022-08-11T16:11:03.878Z,3.40
2022-08-11T16:14:24.901Z,3.20
2022-08-11T16:17:32.122Z,3.30
2022-08-11T16:20:34.793Z,3.40
2022-08-11T16:23:37.855Z,3.70
2022-08-11T16:27:10.980Z,3.90
2022-08-11T16:30:05.969Z,3.70
2022-08-11T16:33:22.566Z,4.40
2022-08-11T16:36:50.670Z,9.30
2022-08-11T16:39:53.016Z,15.60
2022-08-11T16:43:15.647Z,18.70
2022-08-11T16:46:38.055Z,5.20
2022-08-11T16:49:52.218Z,4.40
2022-08-11T16:52:54.806Z,4.60
2022-08-11T16:55:58.721Z,4.30
2022-08-11T16:59:18.188Z,6.70
2022-08-11T17:02:42.153Z,4.30
2022-08-11T17:06:12.310Z,12.80
2022-08-11T17:09:36.460Z,21.20
2022-08-11T17:12:58.012Z,27.40
2022-08-11T17:16:07.910Z,10.90
2022-08-11T17:19:17.032Z,9.50
2022-08-11T17:22:38.041Z,4.80
2022-08-11T17:26:03.729Z,4.30
2022-08-11T17:29:03.328Z,3.40
2022-08-11T17:32:29.928Z,3.70
2022-08-11T17:35:51.693Z,3.70
2022-08-11T17:38:53.851Z,6.00
2022-08-11T17:42:15.551Z,7.50
2022-08-11T17:45:37.889Z,9.20
2022-08-11T17:48:47.267Z,9.30
2022-08-11T17:52:09.266Z,7.10
2022-08-11T17:55:51.970Z,4.40
2022-08-11T17:59:11.867Z,5.20
2022-08-11T18:02:35.103Z,3.70
2022-08-11T18:05:38.314Z,3.90
2022-08-11T18:09:05.938Z,4.50
2022-08-11T18:12:28.366Z,5.30
2022-08-11T18:15:49.935Z,4.50
2022-08-11T18:19:16.586Z,4.20
2022-08-11T18:22:42.206Z,3.50
2022-08-11T18:26:07.420Z,4.00
2022-08-11T18:29:29.643Z,3.50
2022-08-11T18:32:53.682Z,3.40
2022-08-11T18:36:20.627Z,3.30
2022-08-11T18:39:42.780Z,3.40
2022-08-11T18:43:06.539Z,3.20
2022-08-11T18:46:29.063Z,3.40
2022-08-11T18:50:02.174Z,3.50
2022-08-11T18:53:25.098Z,3.30
2022-08-11T18:56:46.542Z,4.20
2022-08-11T19:00:09.327Z,4.60
2022-08-11T19:03:31.443Z,4.30
2022-08-11T19:07:05.581Z,4.70
2022-08-11T19:10:26.907Z,4.70
2022-08-11T19:17:13.990Z,4.70
2022-08-11T19:20:55.512Z,5.40
2022-08-11T19:24:19.834Z,5.10
2022-08-11T19:27:43.412Z,4.20
2022-08-11T19:31:04.020Z,3.80
2022-08-11T19:34:25.737Z,4.10
2022-08-11T19:37:46.827Z,3.80
2022-08-11T19:41:07.830Z,4.60
2022-08-11T19:44:30.148Z,5.20
2022-08-11T19:47:59.134Z,6.30
2022-08-11T19:51:32.906Z,7.00
2022-08-11T19:54:54.465Z,7.00
2022-08-11T19:58:15.826Z,7.80
2022-08-11T20:01:36.574Z,8.10
2022-08-11T20:04:57.372Z,7.90
2022-08-11T20:08:18.624Z,5.60
2022-08-11T20:15:01.981Z,4.80
2022-08-11T20:18:25.079Z,4.90
2022-08-11T20:21:46.342Z,5.30
2022-08-11T20:25:07.653Z,5.30
2022-08-11T20:28:30.582Z,7.30
2022-08-11T20:31:50.993Z,6.50
2022-08-11T20:35:12.196Z,7.30
2022-08-11T20:38:34.249Z,6.70
2022-08-11T20:41:58.363Z,6.40
2022-08-11T20:45:23.555Z,6.50
2022-08-11T20:48:45.656Z,6.00
2022-08-11T20:52:06.493Z,6.20
2022-08-11T20:55:51.684Z,6.70
2022-08-11T20:59:18.551Z,6.00
2022-08-11T21:02:40.653Z,5.70
2022-08-11T21:06:08.934Z,5.50
2022-08-11T21:09:58.227Z,5.40
2022-08-11T21:13:25.874Z,7.40
2022-08-11T21:16:51.906Z,6.50
2022-08-11T21:20:21.612Z,6.40
2022-08-11T21:23:42.408Z,6.20
2022-08-11T21:27:05.618Z,6.50
2022-08-11T21:30:27.078Z,6.80
2022-08-11T21:37:08.841Z,6.40
2022-08-11T21:40:30.209Z,6.60
2022-08-11T21:43:51.231Z,7.10
2022-08-11T21:47:12.411Z,7.60
2022-08-11T21:50:33.001Z,7.50
2022-08-11T21:53:54.375Z,7.40
2022-08-11T21:57:15.326Z,7.10
2022-08-11T22:00:35.787Z,7.50
2022-08-11T22:03:57.163Z,7.70
2022-08-11T22:07:18.255Z,7.20
2022-08-11T22:10:40.886Z,6.10
2022-08-11T22:14:07.952Z,6.50
2022-08-11T22:17:28.542Z,6.50
2022-08-11T22:20:50.569Z,6.90
2022-08-11T22:24:11.515Z,6.70
2022-08-11T22:27:39.796Z,6.00
2022-08-11T22:34:20.684Z,5.10
2022-08-11T22:37:41.879Z,5.30
2022-08-11T22:41:02.932Z,6.00
2022-08-11T22:44:23.824Z,6.40
2022-08-11T22:47:45.049Z,6.80
2022-08-11T22:51:05.704Z,7.00
2022-08-11T22:54:27.566Z,6.80
2022-08-11T22:58:01.277Z,6.40
2022-08-11T23:01:22.025Z,6.70
2022-08-11T23:04:42.953Z,6.10
2022-08-11T23:08:04.400Z,6.00
2022-08-11T23:14:45.954Z,7.00
2022-08-11T23:18:06.640Z,7.10
2022-08-11T23:21:27.401Z,6.90
2022-08-11T23:24:48.600Z,6.70
2022-08-11T23:28:09.241Z,6.60
2022-08-11T23:31:50.396Z,6.20
2022-08-11T23:35:40.462Z,7.40
2022-08-11T23:38:54.569Z,6.20
2022-08-11T23:42:15.538Z,7.10
2022-08-11T23:45:36.467Z,6.60
2022-08-11T23:48:58.565Z,6.40
2022-08-11T23:52:22.608Z,6.80
2022-08-11T23:55:43.237Z,5.20
2022-08-11T23:59:04.621Z,4.60
